sensor_id;sensor_type;location;lat;lon;timestamp;P1;durP1;ratioP1;P2;durP2;ratioP2
44452;SDS011;30155;52.164;21.236;2022-12-07T00:03:10;28.02;;;21.02;;
44452;SDS011;30155;52.164;21.236;2022-12-07T00:08:01;27.95;;;21.68;;
44452;SDS011;30155;52.164;21.236;2022-12-07T00:12:52;27.17;;;20.05;;
44452;SDS011;30155;52.164;21.236;2022-12-07T00:17:43;25.40;;;18.77;;
44452;SDS011;30155;52.164;21.236;2022-12-07T00:22:34;23.92;;;18.77;;
44452;SDS011;30155;52.164;21.236;2022-12-07T00:27:25;24.72;;;18.15;;
44452;SDS011;30155;52.164;21.236;2022-12-07T00:32:17;25.25;;;18.07;;
44452;SDS011;30155;52.164;21.236;2022-12-07T00:37:08;25.75;;;18.17;;
44452;SDS011;30155;52.164;21.236;2022-12-07T00:41:59;23.83;;;17.85;;
44452;SDS011;30155;52.164;21.236;2022-12-07T00:46:50;23.52;;;17.77;;
44452;SDS011;30155;52.164;21.236;2022-12-07T00:51:41;21.57;;;17.17;;
44452;SDS011;30155;52.164;21.236;2022-12-07T00:56:32;24.65;;;17.25;;
44452;SDS011;30155;52.164;21.236;2022-12-07T01:01:25;24.50;;;17.75;;
44452;SDS011;30155;52.164;21.236;2022-12-07T01:06:20;22.67;;;17.70;;
44452;SDS011;30155;52.164;21.236;2022-12-07T01:11:14;20.15;;;15.38;;
44452;SDS011;30155;52.164;21.236;2022-12-07T01:16:09;21.48;;;17.10;;
44452;SDS011;30155;52.164;21.236;2022-12-07T01:21:05;21.87;;;17.25;;
44452;SDS011;30155;52.164;21.236;2022-12-07T01:26:01;23.62;;;16.85;;
44452;SDS011;30155;52.164;21.236;2022-12-07T01:30:59;20.52;;;15.10;;
44452;SDS011;30155;52.164;21.236;2022-12-07T01:36:14;21.27;;;16.48;;
44452;SDS011;30155;52.164;21.236;2022-12-07T01:41:11;22.95;;;17.15;;
44452;SDS011;30155;52.164;21.236;2022-12-07T01:46:04;25.37;;;17.70;;
44452;SDS011;30155;52.164;21.236;2022-12-07T01:50:55;23.70;;;16.75;;
44452;SDS011;30155;52.164;21.236;2022-12-07T01:55:51;20.37;;;13.55;;
44452;SDS011;30155;52.164;21.236;2022-12-07T02:00:43;26.85;;;18.45;;
44452;SDS011;30155;52.164;21.236;2022-12-07T02:05:35;28.62;;;19.35;;
44452;SDS011;30155;52.164;21.236;2022-12-07T02:10:30;23.00;;;15.08;;
44452;SDS011;30155;52.164;21.236;2022-12-07T02:15:25;26.15;;;18.35;;
44452;SDS011;30155;52.164;21.236;2022-12-07T02:20:38;25.27;;;16.97;;
44452;SDS011;30155;52.164;21.236;2022-12-07T02:31:11;20.17;;;15.32;;
44452;SDS011;30155;52.164;21.236;2022-12-07T02:36:10;18.90;;;13.73;;
44452;SDS011;30155;52.164;21.236;2022-12-07T02:41:18;20.45;;;14.53;;
44452;SDS011;30155;52.164;21.236;2022-12-07T02:46:29;19.60;;;14.75;;
44452;SDS011;30155;52.164;21.236;2022-12-07T02:51:24;20.95;;;14.38;;
44452;SDS011;30155;52.164;21.236;2022-12-07T03:07:03;18.40;;;11.83;;
44452;SDS011;30155;52.164;21.236;2022-12-07T03:12:37;16.57;;;10.53;;
44452;SDS011;30155;52.164;21.236;2022-12-07T03:17:37;12.28;;;9.33;;
44452;SDS011;30155;52.164;21.236;2022-12-07T03:22:32;12.50;;;9.95;;
44452;SDS011;30155;52.164;21.236;2022-12-07T03:27:27;12.55;;;9.10;;
44452;SDS011;30155;52.164;21.236;2022-12-07T03:32:36;12.03;;;9.68;;
44452;SDS011;30155;52.164;21.236;2022-12-07T03:37:34;13.45;;;10.10;;
44452;SDS011;30155;52.164;21.236;2022-12-07T03:42:34;11.50;;;9.18;;
44452;SDS011;30155;52.164;21.236;2022-12-07T03:57:37;10.20;;;8.00;;
44452;SDS011;30155;52.164;21.236;2022-12-07T04:02:32;8.63;;;7.03;;
44452;SDS011;30155;52.164;21.236;2022-12-07T04:07:24;8.50;;;6.37;;
44452;SDS011;30155;52.164;21.236;2022-12-07T04:12:16;7.20;;;5.90;;
44452;SDS011;30155;52.164;21.236;2022-12-07T04:17:08;5.28;;;4.72;;
44452;SDS011;30155;52.164;21.236;2022-12-07T04:22:00;5.70;;;4.40;;
44452;SDS011;30155;52.164;21.236;2022-12-07T04:26:53;7.30;;;5.47;;
44452;SDS011;30155;52.164;21.236;2022-12-07T04:31:45;7.65;;;5.53;;
44452;SDS011;30155;52.164;21.236;2022-12-07T04:36:37;7.00;;;5.45;;
44452;SDS011;30155;52.164;21.236;2022-12-07T04:41:29;7.33;;;5.30;;
44452;SDS011;30155;52.164;21.236;2022-12-07T04:46:20;5.62;;;5.12;;
44452;SDS011;30155;52.164;21.236;2022-12-07T04:51:11;4.95;;;4.40;;
44452;SDS011;30155;52.164;21.236;2022-12-07T04:56:02;4.72;;;4.05;;
44452;SDS011;30155;52.164;21.236;2022-12-07T05:00:55;5.12;;;4.45;;
44452;SDS011;30155;52.164;21.236;2022-12-07T05:05:46;5.97;;;4.55;;
44452;SDS011;30155;52.164;21.236;2022-12-07T05:10:37;6.33;;;5.15;;
44452;SDS011;30155;52.164;21.236;2022-12-07T05:15:28;5.92;;;5.30;;
44452;SDS011;30155;52.164;21.236;2022-12-07T05:20:19;6.78;;;5.83;;
44452;SDS011;30155;52.164;21.236;2022-12-07T05:25:10;7.42;;;6.35;;
44452;SDS011;30155;52.164;21.236;2022-12-07T05:30:01;7.00;;;6.30;;
44452;SDS011;30155;52.164;21.236;2022-12-07T05:34:52;8.40;;;6.47;;
44452;SDS011;30155;52.164;21.236;2022-12-07T05:39:45;9.45;;;7.25;;
44452;SDS011;30155;52.164;21.236;2022-12-07T05:44:36;7.28;;;6.50;;
44452;SDS011;30155;52.164;21.236;2022-12-07T05:49:27;9.93;;;7.60;;
44452;SDS011;30155;52.164;21.236;2022-12-07T05:54:18;8.70;;;7.35;;
44452;SDS011;30155;52.164;21.236;2022-12-07T05:59:09;7.05;;;6.35;;
44452;SDS011;30155;52.164;21.236;2022-12-07T06:04:17;7.97;;;6.08;;
44452;SDS011;30155;52.164;21.236;2022-12-07T06:09:09;8.05;;;6.72;;
44452;SDS011;30155;52.164;21.236;2022-12-07T06:14:00;7.87;;;6.95;;
44452;SDS011;30155;52.164;21.236;2022-12-07T06:18:51;8.70;;;6.28;;
44452;SDS011;30155;52.164;21.236;2022-12-07T06:23:42;7.05;;;6.25;;
44452;SDS011;30155;52.164;21.236;2022-12-07T06:28:33;7.33;;;5.75;;
44452;SDS011;30155;52.164;21.236;2022-12-07T06:33:24;8.30;;;7.22;;
44452;SDS011;30155;52.164;21.236;2022-12-07T06:38:16;8.15;;;7.15;;
44452;SDS011;30155;52.164;21.236;2022-12-07T06:43:07;9.40;;;7.70;;
44452;SDS011;30155;52.164;21.236;2022-12-07T06:47:59;11.83;;;8.75;;
44452;SDS011;30155;52.164;21.236;2022-12-07T06:52:50;10.05;;;8.48;;
44452;SDS011;30155;52.164;21.236;2022-12-07T06:57:42;9.68;;;7.28;;
44452;SDS011;30155;52.164;21.236;2022-12-07T07:02:33;9.80;;;7.50;;
44452;SDS011;30155;52.164;21.236;2022-12-07T07:07:24;10.05;;;8.20;;
44452;SDS011;30155;52.164;21.236;2022-12-07T07:12:15;11.70;;;8.28;;
44452;SDS011;30155;52.164;21.236;2022-12-07T07:17:06;9.50;;;7.85;;
44452;SDS011;30155;52.164;21.236;2022-12-07T07:21:57;10.08;;;8.03;;
44452;SDS011;30155;52.164;21.236;2022-12-07T07:26:48;11.05;;;9.25;;
44452;SDS011;30155;52.164;21.236;2022-12-07T07:31:39;12.20;;;8.93;;
44452;SDS011;30155;52.164;21.236;2022-12-07T07:36:30;10.72;;;8.35;;
44452;SDS011;30155;52.164;21.236;2022-12-07T07:41:21;12.33;;;9.93;;
44452;SDS011;30155;52.164;21.236;2022-12-07T07:46:12;8.98;;;7.87;;
44452;SDS011;30155;52.164;21.236;2022-12-07T07:51:06;11.75;;;8.75;;
44452;SDS011;30155;52.164;21.236;2022-12-07T07:55:58;9.15;;;7.15;;
44452;SDS011;30155;52.164;21.236;2022-12-07T08:00:49;12.40;;;8.73;;
44452;SDS011;30155;52.164;21.236;2022-12-07T08:05:40;10.40;;;7.62;;
44452;SDS011;30155;52.164;21.236;2022-12-07T08:10:31;11.03;;;8.13;;
44452;SDS011;30155;52.164;21.236;2022-12-07T08:15:22;11.03;;;6.92;;
44452;SDS011;30155;52.164;21.236;2022-12-07T08:20:14;9.45;;;7.37;;
44452;SDS011;30155;52.164;21.236;2022-12-07T08:25:06;8.73;;;7.37;;
44452;SDS011;30155;52.164;21.236;2022-12-07T08:29:57;7.87;;;7.08;;
44452;SDS011;30155;52.164;21.236;2022-12-07T08:34:48;9.43;;;7.42;;
44452;SDS011;30155;52.164;21.236;2022-12-07T08:39:40;8.73;;;7.72;;
44452;SDS011;30155;52.164;21.236;2022-12-07T08:44:31;10.13;;;8.25;;
44452;SDS011;30155;52.164;21.236;2022-12-07T08:49:23;11.75;;;7.80;;
44452;SDS011;30155;52.164;21.236;2022-12-07T08:54:22;10.38;;;6.17;;
44452;SDS011;30155;52.164;21.236;2022-12-07T08:59:13;9.90;;;7.45;;
44452;SDS011;30155;52.164;21.236;2022-12-07T09:04:07;10.75;;;7.90;;
44452;SDS011;30155;52.164;21.236;2022-12-07T09:08:58;9.50;;;7.10;;
44452;SDS011;30155;52.164;21.236;2022-12-07T09:13:52;11.57;;;8.78;;
44452;SDS011;30155;52.164;21.236;2022-12-07T09:18:43;12.68;;;9.03;;
44452;SDS011;30155;52.164;21.236;2022-12-07T09:23:34;15.75;;;9.70;;
44452;SDS011;30155;52.164;21.236;2022-12-07T09:28:26;14.75;;;10.75;;
44452;SDS011;30155;52.164;21.236;2022-12-07T09:33:17;14.45;;;11.53;;
44452;SDS011;30155;52.164;21.236;2022-12-07T09:38:08;17.70;;;10.88;;
44452;SDS011;30155;52.164;21.236;2022-12-07T09:42:59;13.93;;;9.63;;
44452;SDS011;30155;52.164;21.236;2022-12-07T09:47:50;15.90;;;10.40;;
44452;SDS011;30155;52.164;21.236;2022-12-07T09:52:43;15.05;;;10.75;;
44452;SDS011;30155;52.164;21.236;2022-12-07T09:57:37;17.70;;;11.25;;
44452;SDS011;30155;52.164;21.236;2022-12-07T10:07:32;13.65;;;10.13;;
44452;SDS011;30155;52.164;21.236;2022-12-07T10:12:23;19.25;;;13.75;;
44452;SDS011;30155;52.164;21.236;2022-12-07T10:17:26;20.57;;;12.68;;
44452;SDS011;30155;52.164;21.236;2022-12-07T10:22:34;16.75;;;10.85;;
44452;SDS011;30155;52.164;21.236;2022-12-07T10:27:30;19.80;;;11.30;;
44452;SDS011;30155;52.164;21.236;2022-12-07T10:32:32;15.80;;;9.83;;
44452;SDS011;30155;52.164;21.236;2022-12-07T10:37:26;21.65;;;11.90;;
44452;SDS011;30155;52.164;21.236;2022-12-07T10:42:22;21.27;;;11.45;;
44452;SDS011;30155;52.164;21.236;2022-12-07T11:36:01;13.25;;;10.30;;
44452;SDS011;30155;52.164;21.236;2022-12-07T11:40:34;12.85;;;9.80;;
44452;SDS011;30155;52.164;21.236;2022-12-07T11:45:29;16.90;;;11.95;;
44452;SDS011;30155;52.164;21.236;2022-12-07T11:56:00;15.98;;;11.78;;
44452;SDS011;30155;52.164;21.236;2022-12-07T12:06:15;13.85;;;10.90;;
44452;SDS011;30155;52.164;21.236;2022-12-07T12:21:58;15.50;;;10.15;;
44452;SDS011;30155;52.164;21.236;2022-12-07T12:27:09;12.70;;;9.83;;
44452;SDS011;30155;52.164;21.236;2022-12-07T12:42:42;15.40;;;10.95;;
44452;SDS011;30155;52.164;21.236;2022-12-07T12:57:46;11.33;;;8.33;;
44452;SDS011;30155;52.164;21.236;2022-12-07T13:02:58;16.23;;;10.88;;
44452;SDS011;30155;52.164;21.236;2022-12-07T13:07:52;10.05;;;8.10;;
44452;SDS011;30155;52.164;21.236;2022-12-07T13:18:22;11.80;;;10.38;;
44452;SDS011;30155;52.164;21.236;2022-12-07T13:23:25;13.60;;;10.90;;
44452;SDS011;30155;52.164;21.236;2022-12-07T13:28:37;13.43;;;10.03;;
44452;SDS011;30155;52.164;21.236;2022-12-07T13:33:32;12.28;;;9.65;;
44452;SDS011;30155;52.164;21.236;2022-12-07T13:38:29;13.18;;;9.43;;
44452;SDS011;30155;52.164;21.236;2022-12-07T13:43:23;12.45;;;9.53;;
44452;SDS011;30155;52.164;21.236;2022-12-07T13:53:29;12.33;;;9.55;;
44452;SDS011;30155;52.164;21.236;2022-12-07T13:58:21;10.48;;;8.45;;
44452;SDS011;30155;52.164;21.236;2022-12-07T14:18:28;11.05;;;8.83;;
44452;SDS011;30155;52.164;21.236;2022-12-07T14:23:28;11.18;;;9.33;;
44452;SDS011;30155;52.164;21.236;2022-12-07T14:28:29;12.53;;;10.15;;
44452;SDS011;30155;52.164;21.236;2022-12-07T14:33:24;15.15;;;10.98;;
44452;SDS011;30155;52.164;21.236;2022-12-07T14:38:17;12.28;;;10.98;;
44452;SDS011;30155;52.164;21.236;2022-12-07T14:43:09;14.03;;;11.28;;
44452;SDS011;30155;52.164;21.236;2022-12-07T14:48:03;12.25;;;10.35;;
44452;SDS011;30155;52.164;21.236;2022-12-07T14:52:56;14.35;;;11.60;;
44452;SDS011;30155;52.164;21.236;2022-12-07T14:57:50;14.80;;;12.28;;
44452;SDS011;30155;52.164;21.236;2022-12-07T15:02:41;14.60;;;12.63;;
44452;SDS011;30155;52.164;21.236;2022-12-07T15:07:33;13.45;;;11.18;;
44452;SDS011;30155;52.164;21.236;2022-12-07T15:12:25;13.03;;;11.60;;
44452;SDS011;30155;52.164;21.236;2022-12-07T15:17:16;15.30;;;13.32;;
44452;SDS011;30155;52.164;21.236;2022-12-07T15:22:07;16.57;;;12.85;;
44452;SDS011;30155;52.164;21.236;2022-12-07T15:27:01;14.50;;;12.03;;
44452;SDS011;30155;52.164;21.236;2022-12-07T15:31:53;16.50;;;12.58;;
44452;SDS011;30155;52.164;21.236;2022-12-07T15:36:45;13.15;;;11.22;;
44452;SDS011;30155;52.164;21.236;2022-12-07T15:41:36;15.35;;;12.93;;
44452;SDS011;30155;52.164;21.236;2022-12-07T15:46:31;15.75;;;12.37;;
44452;SDS011;30155;52.164;21.236;2022-12-07T15:51:26;12.60;;;9.88;;
44452;SDS011;30155;52.164;21.236;2022-12-07T15:56:17;14.60;;;12.85;;
44452;SDS011;30155;52.164;21.236;2022-12-07T16:01:09;13.18;;;11.30;;
44452;SDS011;30155;52.164;21.236;2022-12-07T16:06:03;14.78;;;11.73;;
44452;SDS011;30155;52.164;21.236;2022-12-07T16:10:54;15.58;;;10.85;;
44452;SDS011;30155;52.164;21.236;2022-12-07T16:15:45;14.68;;;10.65;;
44452;SDS011;30155;52.164;21.236;2022-12-07T16:20:38;13.50;;;10.55;;
44452;SDS011;30155;52.164;21.236;2022-12-07T16:25:30;14.00;;;11.10;;
44452;SDS011;30155;52.164;21.236;2022-12-07T16:30:21;16.80;;;12.98;;
44452;SDS011;30155;52.164;21.236;2022-12-07T16:35:12;19.00;;;14.03;;
44452;SDS011;30155;52.164;21.236;2022-12-07T16:40:04;17.40;;;13.00;;
44452;SDS011;30155;52.164;21.236;2022-12-07T16:44:57;20.88;;;14.30;;
44452;SDS011;30155;52.164;21.236;2022-12-07T16:49:48;17.90;;;13.80;;
44452;SDS011;30155;52.164;21.236;2022-12-07T16:54:39;17.32;;;12.03;;
44452;SDS011;30155;52.164;21.236;2022-12-07T16:59:30;18.02;;;13.80;;
44452;SDS011;30155;52.164;21.236;2022-12-07T17:04:21;19.10;;;14.05;;
44452;SDS011;30155;52.164;21.236;2022-12-07T17:09:12;20.60;;;14.60;;
44452;SDS011;30155;52.164;21.236;2022-12-07T17:14:03;17.60;;;13.93;;
44452;SDS011;30155;52.164;21.236;2022-12-07T17:19:15;17.15;;;13.53;;
44452;SDS011;30155;52.164;21.236;2022-12-07T17:24:08;16.65;;;12.50;;
44452;SDS011;30155;52.164;21.236;2022-12-07T17:29:03;17.65;;;13.45;;
44452;SDS011;30155;52.164;21.236;2022-12-07T17:33:56;16.57;;;12.33;;
44452;SDS011;30155;52.164;21.236;2022-12-07T17:38:47;17.27;;;12.93;;
44452;SDS011;30155;52.164;21.236;2022-12-07T17:43:39;16.57;;;11.95;;
44452;SDS011;30155;52.164;21.236;2022-12-07T17:48:30;19.42;;;14.25;;
44452;SDS011;30155;52.164;21.236;2022-12-07T17:53:21;20.82;;;14.28;;
44452;SDS011;30155;52.164;21.236;2022-12-07T17:58:12;19.30;;;13.15;;
44452;SDS011;30155;52.164;21.236;2022-12-07T18:03:04;16.73;;;11.85;;
44452;SDS011;30155;52.164;21.236;2022-12-07T18:07:58;17.42;;;11.22;;
44452;SDS011;30155;52.164;21.236;2022-12-07T18:12:49;18.10;;;14.00;;
44452;SDS011;30155;52.164;21.236;2022-12-07T18:17:40;17.30;;;12.25;;
44452;SDS011;30155;52.164;21.236;2022-12-07T18:22:31;19.10;;;12.88;;
44452;SDS011;30155;52.164;21.236;2022-12-07T18:27:22;16.80;;;12.95;;
44452;SDS011;30155;52.164;21.236;2022-12-07T18:32:13;16.85;;;12.53;;
44452;SDS011;30155;52.164;21.236;2022-12-07T18:37:04;18.05;;;12.88;;
44452;SDS011;30155;52.164;21.236;2022-12-07T18:41:55;17.75;;;12.50;;
44452;SDS011;30155;52.164;21.236;2022-12-07T18:46:47;17.15;;;12.25;;
44452;SDS011;30155;52.164;21.236;2022-12-07T18:51:38;16.15;;;12.03;;
44452;SDS011;30155;52.164;21.236;2022-12-07T18:56:30;14.98;;;12.13;;
44452;SDS011;30155;52.164;21.236;2022-12-07T19:01:22;18.42;;;12.68;;
44452;SDS011;30155;52.164;21.236;2022-12-07T19:06:13;13.40;;;11.22;;
44452;SDS011;30155;52.164;21.236;2022-12-07T19:11:04;15.72;;;11.83;;
44452;SDS011;30155;52.164;21.236;2022-12-07T19:15:57;15.10;;;10.08;;
44452;SDS011;30155;52.164;21.236;2022-12-07T19:20:48;15.25;;;11.75;;
44452;SDS011;30155;52.164;21.236;2022-12-07T19:25:39;14.43;;;10.38;;
44452;SDS011;30155;52.164;21.236;2022-12-07T19:30:30;15.90;;;12.28;;
44452;SDS011;30155;52.164;21.236;2022-12-07T19:35:21;16.07;;;12.98;;
44452;SDS011;30155;52.164;21.236;2022-12-07T19:40:12;13.48;;;11.97;;
44452;SDS011;30155;52.164;21.236;2022-12-07T19:45:04;18.73;;;12.43;;
44452;SDS011;30155;52.164;21.236;2022-12-07T19:49:56;17.55;;;12.90;;
44452;SDS011;30155;52.164;21.236;2022-12-07T19:54:47;14.23;;;10.95;;
44452;SDS011;30155;52.164;21.236;2022-12-07T19:59:38;14.30;;;9.38;;
44452;SDS011;30155;52.164;21.236;2022-12-07T20:04:30;13.88;;;10.78;;
44452;SDS011;30155;52.164;21.236;2022-12-07T20:09:25;13.90;;;9.68;;
44452;SDS011;30155;52.164;21.236;2022-12-07T20:14:17;10.85;;;7.75;;
44452;SDS011;30155;52.164;21.236;2022-12-07T20:19:08;10.55;;;8.05;;
44452;SDS011;30155;52.164;21.236;2022-12-07T20:24:01;8.50;;;7.62;;
44452;SDS011;30155;52.164;21.236;2022-12-07T20:28:54;7.10;;;6.28;;
44452;SDS011;30155;52.164;21.236;2022-12-07T20:33:46;7.42;;;5.65;;
44452;SDS011;30155;52.164;21.236;2022-12-07T20:38:38;8.08;;;6.95;;
44452;SDS011;30155;52.164;21.236;2022-12-07T20:43:30;10.50;;;6.92;;
44452;SDS011;30155;52.164;21.236;2022-12-07T20:48:21;10.08;;;6.60;;
44452;SDS011;30155;52.164;21.236;2022-12-07T20:53:12;8.80;;;7.33;;
44452;SDS011;30155;52.164;21.236;2022-12-07T20:58:03;9.88;;;7.70;;
44452;SDS011;30155;52.164;21.236;2022-12-07T21:02:54;8.50;;;6.85;;
44452;SDS011;30155;52.164;21.236;2022-12-07T21:07:48;9.60;;;6.78;;
44452;SDS011;30155;52.164;21.236;2022-12-07T21:12:40;8.73;;;6.47;;
44452;SDS011;30155;52.164;21.236;2022-12-07T21:17:32;8.35;;;6.70;;
44452;SDS011;30155;52.164;21.236;2022-12-07T21:22:23;8.08;;;6.08;;
44452;SDS011;30155;52.164;21.236;2022-12-07T21:27:14;8.13;;;6.50;;
44452;SDS011;30155;52.164;21.236;2022-12-07T21:32:05;7.87;;;6.12;;
44452;SDS011;30155;52.164;21.236;2022-12-07T21:36:56;8.88;;;6.55;;
44452;SDS011;30155;52.164;21.236;2022-12-07T21:41:47;9.40;;;6.80;;
44452;SDS011;30155;52.164;21.236;2022-12-07T21:46:39;9.05;;;6.20;;
44452;SDS011;30155;52.164;21.236;2022-12-07T21:51:30;8.00;;;6.15;;
44452;SDS011;30155;52.164;21.236;2022-12-07T22:01:22;9.65;;;6.28;;
44452;SDS011;30155;52.164;21.236;2022-12-07T22:06:17;8.38;;;6.50;;
44452;SDS011;30155;52.164;21.236;2022-12-07T22:11:12;7.80;;;5.75;;
44452;SDS011;30155;52.164;21.236;2022-12-07T22:16:05;8.38;;;6.53;;
44452;SDS011;30155;52.164;21.236;2022-12-07T22:20:58;5.87;;;4.55;;
44452;SDS011;30155;52.164;21.236;2022-12-07T22:25:50;8.70;;;5.65;;
44452;SDS011;30155;52.164;21.236;2022-12-07T22:30:41;8.70;;;5.80;;
44452;SDS011;30155;52.164;21.236;2022-12-07T22:35:32;7.30;;;5.58;;
44452;SDS011;30155;52.164;21.236;2022-12-07T22:40:24;7.53;;;4.90;;
44452;SDS011;30155;52.164;21.236;2022-12-07T22:45:15;5.15;;;4.40;;
44452;SDS011;30155;52.164;21.236;2022-12-07T22:50:07;7.75;;;4.42;;
44452;SDS011;30155;52.164;21.236;2022-12-07T22:54:59;5.00;;;3.45;;
44452;SDS011;30155;52.164;21.236;2022-12-07T22:59:50;5.75;;;4.50;;
44452;SDS011;30155;52.164;21.236;2022-12-07T23:04:41;11.48;;;5.30;;
44452;SDS011;30155;52.164;21.236;2022-12-07T23:09:33;8.45;;;5.25;;
44452;SDS011;30155;52.164;21.236;2022-12-07T23:14:25;9.20;;;5.42;;
44452;SDS011;30155;52.164;21.236;2022-12-07T23:19:22;7.37;;;6.60;;
44452;SDS011;30155;52.164;21.236;2022-12-07T23:24:15;8.80;;;5.95;;
44452;SDS011;30155;52.164;21.236;2022-12-07T23:29:06;12.18;;;7.00;;
44452;SDS011;30155;52.164;21.236;2022-12-07T23:33:57;8.55;;;6.28;;
44452;SDS011;30155;52.164;21.236;2022-12-07T23:38:49;7.17;;;5.58;;
44452;SDS011;30155;52.164;21.236;2022-12-07T23:43:42;9.35;;;5.67;;
44452;SDS011;30155;52.164;21.236;2022-12-07T23:48:34;8.85;;;6.03;;
44452;SDS011;30155;52.164;21.236;2022-12-07T23:53:26;7.80;;;5.62;;
44452;SDS011;30155;52.164;21.236;2022-12-07T23:58:20;7.83;;;5.47;;
